Taiheimaru — JM6135 — position and weather

sailwx.info

Track history (hours):
 
Tides and Currents Weather Stations Pressure Air Temp Water Temp Dewpoint Dewpoint Depression Visibility Wind Speed Wind Dir Waves Ship Positions

Taiheimaru

Last reported at 2014-Jul-30 12:29 UTC. Time now 2014-Jul-30 13:07 UTC.
Position N 34°37' E 134°58'.

Length 78 m.

Type: Cargo ship. MMSI: 431400082.

Date/timePositionNaut miles runAvg speedWind from/ knotsBaromVisibWave heightAir tempDewpointWater temp
2014-Jul-30 12:29N 34°37' E 134°58'1111.6
2014-Jul-30 11:33N 34°37' E 135°11'4 3.6
2014-Jul-30 10:28N 34°40' E 135°14'0 0.0
2014-Jul-30 09:28N 34°40' E 135°14'0 0.0
2014-Jul-30 08:31N 34°40' E 135°14'0 0.0
2014-Jul-30 07:29N 34°40' E 135°14'1 1.6
2014-Jul-30 06:33N 34°38' E 135°15'10 0.2
2014-Jul-28 06:16N 34°36' E 135°04'710.3
2014-Jul-28 05:33N 34°37' E 135°13'3 2.5
2014-Jul-28 04:28N 34°39' E 135°14'0 0.0
2014-Jul-28 03:28N 34°39' E 135°14'0 0.0
2014-Jul-28 02:28N 34°39' E 135°14'2 1.8
2014-Jul-28 01:33N 34°41' E 135°13'1 0.8
2014-Jul-28 00:31N 34°41' E 135°13'0 0.0
2014-Jul-27 23:31N 34°41' E 135°13'0 0.0
2014-Jul-27 22:25N 34°41' E 135°13'0 0.0
2014-Jul-27 21:31N 34°41' E 135°13'0 0.0
2014-Jul-27 20:25N 34°41' E 135°13'0 0.0
2014-Jul-27 19:22N 34°41' E 135°13'0 0.0
2014-Jul-27 18:28N 34°41' E 135°13'0 0.0
2014-Jul-27 17:28N 34°41' E 135°13'0 0.0
2014-Jul-27 16:28N 34°41' E 135°13'0 0.0
2014-Jul-27 15:28N 34°41' E 135°13'0 0.0
2014-Jul-27 14:31N 34°41' E 135°13'0 0.0
2014-Jul-27 13:31N 34°41' E 135°13'0 0.0
2014-Jul-27 12:28N 34°41' E 135°13'0 0.0
2014-Jul-27 11:28N 34°41' E 135°13'0 0.0
2014-Jul-27 10:31N 34°41' E 135°13'0 0.0
2014-Jul-27 09:24N 34°41' E 135°13'0 0.0
2014-Jul-27 08:25N 34°41' E 135°13'0 0.0
2014-Jul-27 07:28N 34°41' E 135°13'0 0.0
2014-Jul-27 06:22N 34°41' E 135°13'0 0.0
2014-Jul-27 05:31N 34°41' E 135°13'0 0.0
2014-Jul-27 04:32N 34°41' E 135°13'0 0.5
2014-Jul-27 03:33N 34°41' E 135°13'8 7.5
2014-Jul-27 02:32N 34°35' E 135°07'1 0.0
2014-Jul-25 06:33N 34°36' E 135°08'6 5.8
2014-Jul-25 05:28N 34°40' E 135°14'1 0.9
2014-Jul-25 04:33N 34°40' E 135°15'1 1.1
2014-Jul-25 03:31N 34°40' E 135°13'0 0.0
2014-Jul-25 02:31N 34°40' E 135°13'0 0.0
2014-Jul-25 01:28N 34°40' E 135°13'0 0.0
2014-Jul-25 00:31N 34°40' E 135°13'0 0.0
2014-Jul-24 23:25N 34°40' E 135°13'0 0.0
2014-Jul-24 22:31N 34°40' E 135°13'0 0.0
2014-Jul-24 21:33N 34°40' E 135°13'0 0.0
2014-Jul-24 20:33N 34°40' E 135°13'6 5.6
2014-Jul-24 19:33N 34°36' E 135°09'13212.0
2014-Jul-24 08:33N 34°14' E 132°31'8 6.7
2014-Jul-24 07:17N 34°21' E 132°26'3 4.2
2014-Jul-24 06:33N 34°18' E 132°24'129 5.7
2014-Jul-23 08:05N 34°37' E 134°59'712.6
2014-Jul-23 07:33N 34°36' E 135°07'7 7.2
2014-Jul-23 06:33N 34°39' E 135°14'0 0.0
2014-Jul-23 05:33N 34°39' E 135°14'0 0.0
2014-Jul-23 04:24N 34°39' E 135°14'0 0.0
2014-Jul-23 03:30N 34°39' E 135°14'0 0.0
2014-Jul-23 02:32N 34°39' E 135°14'1 1.0
2014-Jul-23 01:19N 34°38' E 135°15'0 0.0
2014-Jul-23 00:29N 34°38' E 135°15'0 0.0
2014-Jul-22 23:17N 34°38' E 135°15'0 0.0
2014-Jul-22 22:29N 34°38' E 135°15'0 0.0
2014-Jul-22 21:29N 34°38' E 135°15'0 0.0
2014-Jul-22 20:29N 34°38' E 135°15'6 6.5
2014-Jul-22 19:34N 34°36' E 135°08'5 0.2
2014-Jul-21 09:23N 34°37' E 135°02'911.0
2014-Jul-21 08:33N 34°37' E 135°13'10 7.9
2014-Jul-21 07:19N 34°38' E 135°25'0 0.0
2014-Jul-21 06:31N 34°38' E 135°25'5 4.7
2014-Jul-21 05:33N 34°39' E 135°20'4 3.8
2014-Jul-21 04:24N 34°39' E 135°15'0 0.0
2014-Jul-21 03:24N 34°39' E 135°15'0 0.0
2014-Jul-21 02:30N 34°39' E 135°15'0 0.0
2014-Jul-21 01:24N 34°39' E 135°15'0 0.0
2014-Jul-21 00:30N 34°39' E 135°15'2 1.8
2014-Jul-20 23:33N 34°41' E 135°13'1 0.8
2014-Jul-20 22:28N 34°41' E 135°13'0 0.0
2014-Jul-20 21:30N 34°41' E 135°13'0 0.0
2014-Jul-20 20:30N 34°41' E 135°13'0 0.0
2014-Jul-20 19:30N 34°41' E 135°13'0 0.0
2014-Jul-20 18:30N 34°41' E 135°13'0 0.0
2014-Jul-20 17:30N 34°41' E 135°13'0 0.0
2014-Jul-20 16:30N 34°41' E 135°13'0 0.0
2014-Jul-20 15:30N 34°41' E 135°13'0 0.0
2014-Jul-20 14:22N 34°41' E 135°13'0 0.0
2014-Jul-20 13:33N 34°41' E 135°13'0 0.0
2014-Jul-20 12:30N 34°41' E 135°13'  
Track history (hours):
 
Tides and Currents Weather Stations Pressure Air Temp Water Temp Dewpoint Dewpoint Depression Visibility Wind Speed Wind Dir Waves Ship Positions

Taiheimaru

Last reported at 2014-Jul-30 12:29 UTC. Time now 2014-Jul-30 13:07 UTC.
Position N 34°37' E 134°58'.

Length 78 m.

Type: Cargo ship. MMSI: 431400082.

Date/timePositionNaut miles runAvg speedWind from/ knotsBaromVisibWave heightAir tempDewpointWater temp
2014-Jul-30 12:29N 34°37' E 134°58'1111.6
2014-Jul-30 11:33N 34°37' E 135°11'4 3.6
2014-Jul-30 10:28N 34°40' E 135°14'0 0.0
2014-Jul-30 09:28N 34°40' E 135°14'0 0.0
2014-Jul-30 08:31N 34°40' E 135°14'0 0.0
2014-Jul-30 07:29N 34°40' E 135°14'1 1.6
2014-Jul-30 06:33N 34°38' E 135°15'10 0.2
2014-Jul-28 06:16N 34°36' E 135°04'710.3
2014-Jul-28 05:33N 34°37' E 135°13'3 2.5
2014-Jul-28 04:28N 34°39' E 135°14'0 0.0
2014-Jul-28 03:28N 34°39' E 135°14'0 0.0
2014-Jul-28 02:28N 34°39' E 135°14'2 1.8
2014-Jul-28 01:33N 34°41' E 135°13'1 0.8
2014-Jul-28 00:31N 34°41' E 135°13'0 0.0
2014-Jul-27 23:31N 34°41' E 135°13'0 0.0
2014-Jul-27 22:25N 34°41' E 135°13'0 0.0
2014-Jul-27 21:31N 34°41' E 135°13'0 0.0
2014-Jul-27 20:25N 34°41' E 135°13'0 0.0
2014-Jul-27 19:22N 34°41' E 135°13'0 0.0
2014-Jul-27 18:28N 34°41' E 135°13'0 0.0
2014-Jul-27 17:28N 34°41' E 135°13'0 0.0
2014-Jul-27 16:28N 34°41' E 135°13'0 0.0
2014-Jul-27 15:28N 34°41' E 135°13'0 0.0
2014-Jul-27 14:31N 34°41' E 135°13'0 0.0
2014-Jul-27 13:31N 34°41' E 135°13'0 0.0
2014-Jul-27 12:28N 34°41' E 135°13'0 0.0
2014-Jul-27 11:28N 34°41' E 135°13'0 0.0
2014-Jul-27 10:31N 34°41' E 135°13'0 0.0
2014-Jul-27 09:24N 34°41' E 135°13'0 0.0
2014-Jul-27 08:25N 34°41' E 135°13'0 0.0
2014-Jul-27 07:28N 34°41' E 135°13'0 0.0
2014-Jul-27 06:22N 34°41' E 135°13'0 0.0
2014-Jul-27 05:31N 34°41' E 135°13'0 0.0
2014-Jul-27 04:32N 34°41' E 135°13'0 0.5
2014-Jul-27 03:33N 34°41' E 135°13'8 7.5
2014-Jul-27 02:32N 34°35' E 135°07'1 0.0
2014-Jul-25 06:33N 34°36' E 135°08'6 5.8
2014-Jul-25 05:28N 34°40' E 135°14'1 0.9
2014-Jul-25 04:33N 34°40' E 135°15'1 1.1
2014-Jul-25 03:31N 34°40' E 135°13'0 0.0
2014-Jul-25 02:31N 34°40' E 135°13'0 0.0
2014-Jul-25 01:28N 34°40' E 135°13'0 0.0
2014-Jul-25 00:31N 34°40' E 135°13'0 0.0
2014-Jul-24 23:25N 34°40' E 135°13'0 0.0
2014-Jul-24 22:31N 34°40' E 135°13'0 0.0
2014-Jul-24 21:33N 34°40' E 135°13'0 0.0
2014-Jul-24 20:33N 34°40' E 135°13'6 5.6
2014-Jul-24 19:33N 34°36' E 135°09'13212.0
2014-Jul-24 08:33N 34°14' E 132°31'8 6.7
2014-Jul-24 07:17N 34°21' E 132°26'3 4.2
2014-Jul-24 06:33N 34°18' E 132°24'129 5.7
2014-Jul-23 08:05N 34°37' E 134°59'712.6
2014-Jul-23 07:33N 34°36' E 135°07'7 7.2
2014-Jul-23 06:33N 34°39' E 135°14'0 0.0
2014-Jul-23 05:33N 34°39' E 135°14'0 0.0
2014-Jul-23 04:24N 34°39' E 135°14'0 0.0
2014-Jul-23 03:30N 34°39' E 135°14'0 0.0
2014-Jul-23 02:32N 34°39' E 135°14'1 1.0
2014-Jul-23 01:19N 34°38' E 135°15'0 0.0
2014-Jul-23 00:29N 34°38' E 135°15'0 0.0
2014-Jul-22 23:17N 34°38' E 135°15'0 0.0
2014-Jul-22 22:29N 34°38' E 135°15'0 0.0
2014-Jul-22 21:29N 34°38' E 135°15'0 0.0
2014-Jul-22 20:29N 34°38' E 135°15'6 6.5
2014-Jul-22 19:34N 34°36' E 135°08'5 0.2
2014-Jul-21 09:23N 34°37' E 135°02'911.0
2014-Jul-21 08:33N 34°37' E 135°13'10 7.9
2014-Jul-21 07:19N 34°38' E 135°25'0 0.0
2014-Jul-21 06:31N 34°38' E 135°25'5 4.7
2014-Jul-21 05:33N 34°39' E 135°20'4 3.8
2014-Jul-21 04:24N 34°39' E 135°15'0 0.0
2014-Jul-21 03:24N 34°39' E 135°15'0 0.0
2014-Jul-21 02:30N 34°39' E 135°15'0 0.0
2014-Jul-21 01:24N 34°39' E 135°15'0 0.0
2014-Jul-21 00:30N 34°39' E 135°15'2 1.8
2014-Jul-20 23:33N 34°41' E 135°13'1 0.8
2014-Jul-20 22:28N 34°41' E 135°13'0 0.0
2014-Jul-20 21:30N 34°41' E 135°13'0 0.0
2014-Jul-20 20:30N 34°41' E 135°13'0 0.0
2014-Jul-20 19:30N 34°41' E 135°13'0 0.0
2014-Jul-20 18:30N 34°41' E 135°13'0 0.0
2014-Jul-20 17:30N 34°41' E 135°13'0 0.0
2014-Jul-20 16:30N 34°41' E 135°13'0 0.0
2014-Jul-20 15:30N 34°41' E 135°13'0 0.0
2014-Jul-20 14:22N 34°41' E 135°13'0 0.0
2014-Jul-20 13:33N 34°41' E 135°13'0 0.0
2014-Jul-20 12:30N 34°41' E 135°13'  

Dump ship's entire track history